Arcadia Highway — 3FQT4 — position and weather

sailwx.info

Track history (hours):
 
Tides and Currents Weather Stations Pressure Air Temp Water Temp Dewpoint Dewpoint Depression Visibility Wind Speed Wind Dir Waves Ship Positions

Arcadia Highway

Last reported at 2014-Jun-30 17:23 UTC. Time now 2014-Jul-23 15:32 UTC.
Position N 01°14' E 103°27'.
Warning: this ship's position is 22 days out of date.

Length 179 m; draft 8.5 m.

Type: Cargo ship. MMSI: 354342000.

Date/timePositionNaut miles runAvg speedWind from/ knotsBaromVisibWave heightAir tempDewpointWater temp
2014-Jun-30 17:23N 01°14' E 103°27'1113.3
2014-Jun-30 16:33N 01°12' E 103°38'8 7.9
2014-Jun-30 15:33N 01°16' E 103°45'1 0.9
2014-Jun-30 14:24N 01°17' E 103°45'0 0.0
2014-Jun-30 13:30N 01°17' E 103°45'0 0.0
2014-Jun-30 12:30N 01°17' E 103°45'0 0.0
2014-Jun-30 11:24N 01°17' E 103°45'0 0.0
2014-Jun-30 10:30N 01°17' E 103°45'0 0.0
2014-Jun-30 09:33N 01°17' E 103°45'0 0.0
2014-Jun-30 08:30N 01°17' E 103°45'0 0.1
2014-Jun-30 07:18N 01°17' E 103°45'0 0.1
2014-Jun-30 06:30N 01°17' E 103°45'0 0.0
2014-Jun-30 05:30N 01°17' E 103°45'0 0.0
2014-Jun-30 04:24N 01°17' E 103°45'0 0.1
2014-Jun-30 03:33N 01°17' E 103°45'0 0.1
2014-Jun-30 02:30N 01°17' E 103°45'0 0.0
2014-Jun-30 01:30N 01°17' E 103°45'0 0.0
2014-Jun-30 00:30N 01°17' E 103°45'0 0.0
2014-Jun-29 23:30N 01°17' E 103°45'0 0.0
2014-Jun-29 22:30N 01°17' E 103°45'0 0.0
2014-Jun-29 21:30N 01°17' E 103°45'0 0.0
2014-Jun-29 20:30N 01°17' E 103°45'1 0.7
2014-Jun-29 19:34N 01°16' E 103°45'2 2.1
2014-Jun-29 18:34N 01°15' E 103°47'1 0.9
2014-Jun-29 17:23N 01°15' E 103°48'0 0.1
2014-Jun-29 16:17N 01°15' E 103°48'0 0.0
2014-Jun-29 15:29N 01°15' E 103°48'0 0.1
2014-Jun-29 14:29N 01°15' E 103°48'0 0.1
2014-Jun-29 13:23N 01°15' E 103°48'0 0.0
2014-Jun-29 12:23N 01°15' E 103°48'0 0.0
2014-Jun-29 11:29N 01°15' E 103°48'0 0.1
2014-Jun-29 10:23N 01°15' E 103°48'0 0.1
2014-Jun-29 09:29N 01°15' E 103°48'1 1.2
2014-Jun-29 08:33N 01°15' E 103°47'3 2.7
2014-Jun-29 07:33N 01°17' E 103°45'0 0.1
2014-Jun-29 06:33N 01°17' E 103°45'0 0.1
2014-Jun-29 05:30N 01°17' E 103°45'0 0.0
2014-Jun-29 04:24N 01°17' E 103°45'0 0.0
2014-Jun-29 03:33N 01°17' E 103°45'0 0.0
2014-Jun-29 02:30N 01°17' E 103°45'0 0.0
2014-Jun-29 01:33N 01°17' E 103°45'0 0.1
2014-Jun-29 00:30N 01°17' E 103°45'0 0.1
2014-Jun-28 23:24N 01°17' E 103°45'0 0.0
2014-Jun-28 22:33N 01°17' E 103°45'1 1.0
2014-Jun-28 21:33N 01°16' E 103°45'7 6.5
2014-Jun-28 20:33N 01°12' E 103°51'6 5.9
2014-Jun-28 19:33N 01°15' E 103°56'  
Track history (hours):
 
Tides and Currents Weather Stations Pressure Air Temp Water Temp Dewpoint Dewpoint Depression Visibility Wind Speed Wind Dir Waves Ship Positions

Arcadia Highway

Last reported at 2014-Jun-30 17:23 UTC. Time now 2014-Jul-23 15:32 UTC.
Position N 01°14' E 103°27'.
Warning: this ship's position is 22 days out of date.

Length 179 m; draft 8.5 m.

Type: Cargo ship. MMSI: 354342000.

Date/timePositionNaut miles runAvg speedWind from/ knotsBaromVisibWave heightAir tempDewpointWater temp
2014-Jun-30 17:23N 01°14' E 103°27'1113.3
2014-Jun-30 16:33N 01°12' E 103°38'8 7.9
2014-Jun-30 15:33N 01°16' E 103°45'1 0.9
2014-Jun-30 14:24N 01°17' E 103°45'0 0.0
2014-Jun-30 13:30N 01°17' E 103°45'0 0.0
2014-Jun-30 12:30N 01°17' E 103°45'0 0.0
2014-Jun-30 11:24N 01°17' E 103°45'0 0.0
2014-Jun-30 10:30N 01°17' E 103°45'0 0.0
2014-Jun-30 09:33N 01°17' E 103°45'0 0.0
2014-Jun-30 08:30N 01°17' E 103°45'0 0.1
2014-Jun-30 07:18N 01°17' E 103°45'0 0.1
2014-Jun-30 06:30N 01°17' E 103°45'0 0.0
2014-Jun-30 05:30N 01°17' E 103°45'0 0.0
2014-Jun-30 04:24N 01°17' E 103°45'0 0.1
2014-Jun-30 03:33N 01°17' E 103°45'0 0.1
2014-Jun-30 02:30N 01°17' E 103°45'0 0.0
2014-Jun-30 01:30N 01°17' E 103°45'0 0.0
2014-Jun-30 00:30N 01°17' E 103°45'0 0.0
2014-Jun-29 23:30N 01°17' E 103°45'0 0.0
2014-Jun-29 22:30N 01°17' E 103°45'0 0.0
2014-Jun-29 21:30N 01°17' E 103°45'0 0.0
2014-Jun-29 20:30N 01°17' E 103°45'1 0.7
2014-Jun-29 19:34N 01°16' E 103°45'2 2.1
2014-Jun-29 18:34N 01°15' E 103°47'1 0.9
2014-Jun-29 17:23N 01°15' E 103°48'0 0.1
2014-Jun-29 16:17N 01°15' E 103°48'0 0.0
2014-Jun-29 15:29N 01°15' E 103°48'0 0.1
2014-Jun-29 14:29N 01°15' E 103°48'0 0.1
2014-Jun-29 13:23N 01°15' E 103°48'0 0.0
2014-Jun-29 12:23N 01°15' E 103°48'0 0.0
2014-Jun-29 11:29N 01°15' E 103°48'0 0.1
2014-Jun-29 10:23N 01°15' E 103°48'0 0.1
2014-Jun-29 09:29N 01°15' E 103°48'1 1.2
2014-Jun-29 08:33N 01°15' E 103°47'3 2.7
2014-Jun-29 07:33N 01°17' E 103°45'0 0.1
2014-Jun-29 06:33N 01°17' E 103°45'0 0.1
2014-Jun-29 05:30N 01°17' E 103°45'0 0.0
2014-Jun-29 04:24N 01°17' E 103°45'0 0.0
2014-Jun-29 03:33N 01°17' E 103°45'0 0.0
2014-Jun-29 02:30N 01°17' E 103°45'0 0.0
2014-Jun-29 01:33N 01°17' E 103°45'0 0.1
2014-Jun-29 00:30N 01°17' E 103°45'0 0.1
2014-Jun-28 23:24N 01°17' E 103°45'0 0.0
2014-Jun-28 22:33N 01°17' E 103°45'1 1.0
2014-Jun-28 21:33N 01°16' E 103°45'7 6.5
2014-Jun-28 20:33N 01°12' E 103°51'6 5.9
2014-Jun-28 19:33N 01°15' E 103°56'  

Dump ship's entire track history